sensor_id;sensor_type;location;lat;lon;timestamp;pressure;altitude;pressure_sealevel;temperature;humidity
19286;BME280;9776;50.798;6.430;2024-01-27T00:02:08;102064.53;;;5.35;61.80
19286;BME280;9776;50.798;6.430;2024-01-27T00:04:35;102056.78;;;5.34;61.86
19286;BME280;9776;50.798;6.430;2024-01-27T00:07:02;102058.41;;;5.36;61.66
19286;BME280;9776;50.798;6.430;2024-01-27T00:09:30;102070.63;;;5.36;61.72
19286;BME280;9776;50.798;6.430;2024-01-27T00:11:57;102056.81;;;5.32;61.85
19286;BME280;9776;50.798;6.430;2024-01-27T00:14:23;102058.75;;;5.29;61.90
19286;BME280;9776;50.798;6.430;2024-01-27T00:16:50;102057.75;;;5.31;61.96
19286;BME280;9776;50.798;6.430;2024-01-27T00:19:17;102066.31;;;5.35;61.94
19286;BME280;9776;50.798;6.430;2024-01-27T00:21:43;102072.81;;;5.26;62.05
19286;BME280;9776;50.798;6.430;2024-01-27T00:24:10;102078.28;;;5.22;62.29
19286;BME280;9776;50.798;6.430;2024-01-27T00:26:38;102076.53;;;5.22;62.21
19286;BME280;9776;50.798;6.430;2024-01-27T00:29:05;102072.06;;;5.24;62.09
19286;BME280;9776;50.798;6.430;2024-01-27T00:31:31;102077.06;;;5.29;61.96
19286;BME280;9776;50.798;6.430;2024-01-27T00:33:58;102082.25;;;5.30;62.04
19286;BME280;9776;50.798;6.430;2024-01-27T00:36:25;102072.69;;;5.29;62.00
19286;BME280;9776;50.798;6.430;2024-01-27T00:38:53;102083.31;;;5.26;61.90
19286;BME280;9776;50.798;6.430;2024-01-27T00:41:19;102083.31;;;5.26;62.01
19286;BME280;9776;50.798;6.430;2024-01-27T00:43:47;102073.91;;;5.22;62.24
19286;BME280;9776;50.798;6.430;2024-01-27T00:46:14;102084.44;;;5.21;62.16
19286;BME280;9776;50.798;6.430;2024-01-27T00:48:41;102083.59;;;5.20;62.24
19286;BME280;9776;50.798;6.430;2024-01-27T00:51:07;102091.28;;;5.23;62.28
19286;BME280;9776;50.798;6.430;2024-01-27T00:53:34;102094.63;;;5.27;62.09
19286;BME280;9776;50.798;6.430;2024-01-27T00:56:01;102090.25;;;5.27;62.20
19286;BME280;9776;50.798;6.430;2024-01-27T00:58:28;102093.78;;;5.26;62.12
19286;BME280;9776;50.798;6.430;2024-01-27T01:00:56;102099.94;;;5.25;62.22
19286;BME280;9776;50.798;6.430;2024-01-27T01:03:23;102097.34;;;5.25;62.29
19286;BME280;9776;50.798;6.430;2024-01-27T01:05:50;102096.53;;;5.23;62.19
19286;BME280;9776;50.798;6.430;2024-01-27T01:08:17;102094.72;;;5.25;62.18
19286;BME280;9776;50.798;6.430;2024-01-27T01:10:43;102097.34;;;5.25;62.21
19286;BME280;9776;50.798;6.430;2024-01-27T01:13:10;102098.25;;;5.24;62.31
19286;BME280;9776;50.798;6.430;2024-01-27T01:15:37;102096.53;;;5.23;62.44
19286;BME280;9776;50.798;6.430;2024-01-27T01:18:06;102092.09;;;5.25;62.29
19286;BME280;9776;50.798;6.430;2024-01-27T01:20:32;102096.53;;;5.23;62.41
19286;BME280;9776;50.798;6.430;2024-01-27T01:22:59;102088.69;;;5.23;62.28
19286;BME280;9776;50.798;6.430;2024-01-27T01:25:26;102090.75;;;5.17;62.48
19286;BME280;9776;50.798;6.430;2024-01-27T01:27:51;102103.75;;;5.18;62.46
19286;BME280;9776;50.798;6.430;2024-01-27T01:30:18;102094.91;;;5.21;62.39
19286;BME280;9776;50.798;6.430;2024-01-27T01:32:45;102105.34;;;5.22;62.33
19286;BME280;9776;50.798;6.430;2024-01-27T01:35:14;102105.25;;;5.24;62.33
19286;BME280;9776;50.798;6.430;2024-01-27T01:37:41;102107.16;;;5.20;62.48
19286;BME280;9776;50.798;6.430;2024-01-27T01:40:08;102111.63;;;5.18;62.59
19286;BME280;9776;50.798;6.430;2024-01-27T01:42:35;102113.81;;;5.08;62.83
19286;BME280;9776;50.798;6.430;2024-01-27T01:45:02;102118.34;;;5.05;62.94
19286;BME280;9776;50.798;6.430;2024-01-27T01:47:29;102109.66;;;5.04;62.90
19286;BME280;9776;50.798;6.430;2024-01-27T01:49:56;102110.56;;;5.03;62.92
19286;BME280;9776;50.798;6.430;2024-01-27T01:52:24;102119.13;;;5.07;62.86
19286;BME280;9776;50.798;6.430;2024-01-27T01:54:51;102116.38;;;5.10;62.82
19286;BME280;9776;50.798;6.430;2024-01-27T01:57:17;102117.13;;;5.12;62.74
19286;BME280;9776;50.798;6.430;2024-01-27T01:59:44;102111.00;;;5.13;62.59
19286;BME280;9776;50.798;6.430;2024-01-27T02:02:12;102116.09;;;5.16;62.65
19286;BME280;9776;50.798;6.430;2024-01-27T02:04:40;102116.94;;;5.17;62.65
19286;BME280;9776;50.798;6.430;2024-01-27T02:07:07;102110.00;;;5.15;62.67
19286;BME280;9776;50.798;6.430;2024-01-27T02:09:35;102116.22;;;5.13;62.72
19286;BME280;9776;50.798;6.430;2024-01-27T02:12:02;102107.56;;;5.11;62.77
19286;BME280;9776;50.798;6.430;2024-01-27T02:14:29;102109.28;;;5.12;62.69
19286;BME280;9776;50.798;6.430;2024-01-27T02:16:56;102113.66;;;5.11;62.67
19286;BME280;9776;50.798;6.430;2024-01-27T02:19:23;102113.81;;;5.08;62.86
19286;BME280;9776;50.798;6.430;2024-01-27T02:21:50;102109.56;;;5.06;63.13
19286;BME280;9776;50.798;6.430;2024-01-27T02:24:18;102112.19;;;5.06;62.90
19286;BME280;9776;50.798;6.430;2024-01-27T02:26:45;102114.06;;;5.02;62.92
19286;BME280;9776;50.798;6.430;2024-01-27T02:29:12;102112.41;;;5.01;63.19
19286;BME280;9776;50.798;6.430;2024-01-27T02:31:38;102117.69;;;5.00;63.12
19286;BME280;9776;50.798;6.430;2024-01-27T02:34:05;102117.84;;;4.97;63.27
19286;BME280;9776;50.798;6.430;2024-01-27T02:36:31;102115.50;;;4.91;63.29
19286;BME280;9776;50.798;6.430;2024-01-27T02:38:58;102113.94;;;4.87;63.52
19286;BME280;9776;50.798;6.430;2024-01-27T02:41:26;102106.09;;;4.87;63.56
19286;BME280;9776;50.798;6.430;2024-01-27T02:43:53;102107.94;;;4.85;63.52
19286;BME280;9776;50.798;6.430;2024-01-27T02:46:20;102115.78;;;4.85;63.47
19286;BME280;9776;50.798;6.430;2024-01-27T02:48:46;102108.84;;;4.84;63.76
19286;BME280;9776;50.798;6.430;2024-01-27T02:51:13;102109.75;;;4.83;63.71
19286;BME280;9776;50.798;6.430;2024-01-27T02:53:45;102108.13;;;4.80;63.61
19286;BME280;9776;50.798;6.430;2024-01-27T02:56:11;102112.78;;;4.74;63.75
19286;BME280;9776;50.798;6.430;2024-01-27T02:58:40;102106.88;;;4.70;63.80
19286;BME280;9776;50.798;6.430;2024-01-27T03:01:07;102112.28;;;4.66;64.20
19286;BME280;9776;50.798;6.430;2024-01-27T03:03:34;102106.34;;;4.62;64.05
19286;BME280;9776;50.798;6.430;2024-01-27T03:06:01;102112.63;;;4.58;64.22
19286;BME280;9776;50.798;6.430;2024-01-27T03:08:27;102119.75;;;4.54;64.17
19286;BME280;9776;50.798;6.430;2024-01-27T03:10:54;102118.06;;;4.53;64.43
19286;BME280;9776;50.798;6.430;2024-01-27T03:13:21;102111.06;;;4.54;64.25
19286;BME280;9776;50.798;6.430;2024-01-27T03:15:49;102114.41;;;4.57;64.06
19286;BME280;9776;50.798;6.430;2024-01-27T03:18:17;102110.88;;;4.58;64.10
19286;BME280;9776;50.798;6.430;2024-01-27T03:20:44;102115.31;;;4.56;64.33
19286;BME280;9776;50.798;6.430;2024-01-27T03:23:11;102115.16;;;4.59;64.13
19286;BME280;9776;50.798;6.430;2024-01-27T03:25:37;102114.13;;;4.64;64.08
19286;BME280;9776;50.798;6.430;2024-01-27T03:28:04;102109.09;;;4.59;64.17
19286;BME280;9776;50.798;6.430;2024-01-27T03:30:31;102109.94;;;4.59;64.08
19286;BME280;9776;50.798;6.430;2024-01-27T03:32:59;102115.03;;;4.63;64.07
19286;BME280;9776;50.798;6.430;2024-01-27T03:35:26;102121.22;;;4.62;63.99
19286;BME280;9776;50.798;6.430;2024-01-27T03:37:52;102109.94;;;4.59;64.10
19286;BME280;9776;50.798;6.430;2024-01-27T03:40:26;102111.91;;;4.54;64.18
19286;BME280;9776;50.798;6.430;2024-01-27T03:42:53;102106.19;;;4.46;64.39
19286;BME280;9776;50.798;6.430;2024-01-27T03:45:20;102120.25;;;4.44;64.44
19286;BME280;9776;50.798;6.430;2024-01-27T03:47:46;102123.75;;;4.43;64.43
19286;BME280;9776;50.798;6.430;2024-01-27T03:50:14;102122.78;;;4.45;64.44
19286;BME280;9776;50.798;6.430;2024-01-27T03:52:41;102120.94;;;4.47;64.34
19286;BME280;9776;50.798;6.430;2024-01-27T03:55:08;102124.34;;;4.49;64.18
19286;BME280;9776;50.798;6.430;2024-01-27T03:57:35;102120.75;;;4.52;64.24
19286;BME280;9776;50.798;6.430;2024-01-27T04:00:03;102121.78;;;4.48;64.22
19286;BME280;9776;50.798;6.430;2024-01-27T04:02:30;102131.53;;;4.44;64.42
19286;BME280;9776;50.798;6.430;2024-01-27T04:04:57;102133.38;;;4.42;64.30
19286;BME280;9776;50.798;6.430;2024-01-27T04:07:25;102137.47;;;4.48;64.26
19286;BME280;9776;50.798;6.430;2024-01-27T04:09:52;102131.38;;;4.47;64.15
19286;BME280;9776;50.798;6.430;2024-01-27T04:12:18;102142.56;;;4.51;64.06
19286;BME280;9776;50.798;6.430;2024-01-27T04:14:45;102136.63;;;4.47;64.09
19286;BME280;9776;50.798;6.430;2024-01-27T04:17:12;102134.94;;;4.46;64.13
19286;BME280;9776;50.798;6.430;2024-01-27T04:19:38;102135.94;;;4.44;64.10
19286;BME280;9776;50.798;6.430;2024-01-27T04:22:05;102138.59;;;4.42;64.24
19286;BME280;9776;50.798;6.430;2024-01-27T04:24:34;102138.53;;;4.44;64.31
19286;BME280;9776;50.798;6.430;2024-01-27T04:27:00;102139.38;;;4.44;64.18
19286;BME280;9776;50.798;6.430;2024-01-27T04:29:27;102141.28;;;4.41;64.28
19286;BME280;9776;50.798;6.430;2024-01-27T04:31:54;102149.31;;;4.36;64.36
19286;BME280;9776;50.798;6.430;2024-01-27T04:34:21;102143.22;;;4.36;64.31
19286;BME280;9776;50.798;6.430;2024-01-27T04:36:48;102145.78;;;4.37;64.37
19286;BME280;9776;50.798;6.430;2024-01-27T04:39:15;102141.47;;;4.36;64.28
19286;BME280;9776;50.798;6.430;2024-01-27T04:41:43;102149.38;;;4.35;64.23
19286;BME280;9776;50.798;6.430;2024-01-27T04:44:10;102148.41;;;4.37;64.15
19286;BME280;9776;50.798;6.430;2024-01-27T04:46:37;102145.06;;;4.34;64.18
19286;BME280;9776;50.798;6.430;2024-01-27T04:49:04;102146.81;;;4.33;64.15
19286;BME280;9776;50.798;6.430;2024-01-27T04:51:30;102144.28;;;4.32;64.29
19286;BME280;9776;50.798;6.430;2024-01-27T04:53:57;102143.44;;;4.31;64.29
19286;BME280;9776;50.798;6.430;2024-01-27T04:56:24;102141.72;;;4.30;64.29
19286;BME280;9776;50.798;6.430;2024-01-27T04:58:52;102141.84;;;4.27;64.37
19286;BME280;9776;50.798;6.430;2024-01-27T05:01:19;102139.19;;;4.29;64.40
19286;BME280;9776;50.798;6.430;2024-01-27T05:03:46;102139.84;;;4.34;64.26
19286;BME280;9776;50.798;6.430;2024-01-27T05:06:12;102144.09;;;4.36;64.19
19286;BME280;9776;50.798;6.430;2024-01-27T05:08:39;102147.75;;;4.32;64.13
19286;BME280;9776;50.798;6.430;2024-01-27T05:11:06;102146.13;;;4.30;64.32
19286;BME280;9776;50.798;6.430;2024-01-27T05:13:33;102143.56;;;4.28;64.28
19286;BME280;9776;50.798;6.430;2024-01-27T05:16:01;102144.47;;;4.27;64.22
19286;BME280;9776;50.798;6.430;2024-01-27T05:18:28;102140.06;;;4.29;64.34
19286;BME280;9776;50.798;6.430;2024-01-27T05:20:55;102141.72;;;4.30;64.24
19286;BME280;9776;50.798;6.430;2024-01-27T05:23:21;102146.13;;;4.30;64.34
19286;BME280;9776;50.798;6.430;2024-01-27T05:25:48;102139.19;;;4.29;64.27
19286;BME280;9776;50.798;6.430;2024-01-27T05:28:15;102142.78;;;4.26;64.29
19286;BME280;9776;50.798;6.430;2024-01-27T05:30:42;102140.22;;;4.25;64.38
19286;BME280;9776;50.798;6.430;2024-01-27T05:33:11;102130.75;;;4.22;64.40
19286;BME280;9776;50.798;6.430;2024-01-27T05:35:38;102128.91;;;4.24;64.28
19286;BME280;9776;50.798;6.430;2024-01-27T05:38:04;102134.13;;;4.24;64.32
19286;BME280;9776;50.798;6.430;2024-01-27T05:40:31;102131.53;;;4.24;64.29
19286;BME280;9776;50.798;6.430;2024-01-27T05:42:58;102132.38;;;4.25;64.36
19286;BME280;9776;50.798;6.430;2024-01-27T05:45:24;102135.00;;;4.25;64.21
19286;BME280;9776;50.798;6.430;2024-01-27T05:47:52;102135.00;;;4.25;64.31
19286;BME280;9776;50.798;6.430;2024-01-27T05:50:20;102142.72;;;4.28;64.29
19286;BME280;9776;50.798;6.430;2024-01-27T05:52:46;102137.44;;;4.29;64.08
19286;BME280;9776;50.798;6.430;2024-01-27T05:55:13;102136.44;;;4.32;64.01
19286;BME280;9776;50.798;6.430;2024-01-27T05:57:41;102134.56;;;4.35;64.00
19286;BME280;9776;50.798;6.430;2024-01-27T06:00:09;102128.47;;;4.35;63.92
19286;BME280;9776;50.798;6.430;2024-01-27T06:02:36;102139.72;;;4.37;63.81
19286;BME280;9776;50.798;6.430;2024-01-27T06:05:03;102131.94;;;4.35;64.00
19286;BME280;9776;50.798;6.430;2024-01-27T06:07:31;102140.69;;;4.34;63.88
19286;BME280;9776;50.798;6.430;2024-01-27T06:09:58;102132.94;;;4.33;63.95
19286;BME280;9776;50.798;6.430;2024-01-27T06:12:24;102135.47;;;4.34;63.89
19286;BME280;9776;50.798;6.430;2024-01-27T06:14:51;102138.97;;;4.33;63.89
19286;BME280;9776;50.798;6.430;2024-01-27T06:17:17;102141.72;;;4.30;63.75
19286;BME280;9776;50.798;6.430;2024-01-27T06:19:44;102145.41;;;4.26;63.73
19286;BME280;9776;50.798;6.430;2024-01-27T06:22:11;102149.81;;;4.24;63.88
19286;BME280;9776;50.798;6.430;2024-01-27T06:24:42;102143.91;;;4.21;63.85
19286;BME280;9776;50.798;6.430;2024-01-27T06:27:10;102150.22;;;4.15;63.73
19286;BME280;9776;50.798;6.430;2024-01-27T06:29:36;102153.84;;;4.13;63.86
19286;BME280;9776;50.798;6.430;2024-01-27T06:32:04;102163.44;;;4.12;64.01
19286;BME280;9776;50.798;6.430;2024-01-27T06:34:31;102152.41;;;4.04;64.06
19286;BME280;9776;50.798;6.430;2024-01-27T06:36:58;102148.03;;;4.05;63.93
19286;BME280;9776;50.798;6.430;2024-01-27T06:39:25;102156.81;;;4.04;63.89
19286;BME280;9776;50.798;6.430;2024-01-27T06:41:53;102156.75;;;4.05;63.90
19286;BME280;9776;50.798;6.430;2024-01-27T06:44:20;102148.91;;;4.05;63.75
19286;BME280;9776;50.798;6.430;2024-01-27T06:46:47;102148.03;;;4.05;63.84
19286;BME280;9776;50.798;6.430;2024-01-27T06:49:15;102143.81;;;4.02;63.77
19286;BME280;9776;50.798;6.430;2024-01-27T06:51:43;102140.28;;;4.03;63.72
19286;BME280;9776;50.798;6.430;2024-01-27T06:54:09;102142.94;;;4.01;63.79
19286;BME280;9776;50.798;6.430;2024-01-27T06:56:36;102144.75;;;4.01;63.71
19286;BME280;9776;50.798;6.430;2024-01-27T06:59:05;102131.72;;;3.99;63.72
19286;BME280;9776;50.798;6.430;2024-01-27T07:01:31;102147.47;;;3.98;63.74
19286;BME280;9776;50.798;6.430;2024-01-27T07:03:58;102152.75;;;3.96;63.76
19286;BME280;9776;50.798;6.430;2024-01-27T07:06:25;102159.72;;;3.96;63.76
19286;BME280;9776;50.798;6.430;2024-01-27T07:08:51;102150.25;;;3.93;63.97
19286;BME280;9776;50.798;6.430;2024-01-27T07:11:18;102149.34;;;3.94;63.75
19286;BME280;9776;50.798;6.430;2024-01-27T07:13:45;102153.72;;;3.94;63.87
19286;BME280;9776;50.798;6.430;2024-01-27T07:16:13;102156.34;;;3.94;63.84
19286;BME280;9776;50.798;6.430;2024-01-27T07:18:40;102152.09;;;3.91;63.97
19286;BME280;9776;50.798;6.430;2024-01-27T07:21:06;102160.84;;;3.90;63.93
19286;BME280;9776;50.798;6.430;2024-01-27T07:23:33;102163.44;;;3.90;64.01
19286;BME280;9776;50.798;6.430;2024-01-27T07:26:00;102163.41;;;3.92;63.83
19286;BME280;9776;50.798;6.430;2024-01-27T07:28:28;102167.66;;;3.94;63.84
19286;BME280;9776;50.798;6.430;2024-01-27T07:30:55;102175.41;;;3.96;63.82
19286;BME280;9776;50.798;6.430;2024-01-27T07:33:23;102180.63;;;3.96;63.87
19286;BME280;9776;50.798;6.430;2024-01-27T07:35:50;102195.41;;;3.97;63.79
19286;BME280;9776;50.798;6.430;2024-01-27T07:38:17;102193.66;;;3.97;63.84
19286;BME280;9776;50.798;6.430;2024-01-27T07:40:44;102199.00;;;3.94;63.99
19286;BME280;9776;50.798;6.430;2024-01-27T07:43:10;102207.69;;;3.95;64.12
19286;BME280;9776;50.798;6.430;2024-01-27T07:45:37;102205.91;;;3.95;64.10
19286;BME280;9776;50.798;6.430;2024-01-27T07:48:05;102208.47;;;3.97;64.01
19286;BME280;9776;50.798;6.430;2024-01-27T07:50:34;102229.25;;;4.00;63.83
19286;BME280;9776;50.798;6.430;2024-01-27T07:53:01;102217.03;;;4.00;63.91
19286;BME280;9776;50.798;6.430;2024-01-27T07:55:27;102222.31;;;3.99;64.02
19286;BME280;9776;50.798;6.430;2024-01-27T07:57:54;102222.19;;;4.02;64.06
19286;BME280;9776;50.798;6.430;2024-01-27T08:00:21;102205.53;;;4.05;64.01
19286;BME280;9776;50.798;6.430;2024-01-27T08:02:47;102219.28;;;4.10;63.98
19286;BME280;9776;50.798;6.430;2024-01-27T08:05:14;102212.22;;;4.12;64.00
19286;BME280;9776;50.798;6.430;2024-01-27T08:07:42;102215.44;;;4.18;63.88
19286;BME280;9776;50.798;6.430;2024-01-27T08:10:09;102222.34;;;4.19;63.80
19286;BME280;9776;50.798;6.430;2024-01-27T08:12:36;102216.28;;;4.19;63.78
19286;BME280;9776;50.798;6.430;2024-01-27T08:15:04;102221.44;;;4.20;63.58
19286;BME280;9776;50.798;6.430;2024-01-27T08:17:31;102228.41;;;4.21;63.81
19286;BME280;9776;50.798;6.430;2024-01-27T08:19:58;102219.63;;;4.22;63.79
19286;BME280;9776;50.798;6.430;2024-01-27T08:22:25;102219.63;;;4.22;63.78
19286;BME280;9776;50.798;6.430;2024-01-27T08:24:53;102219.50;;;4.25;63.94
19286;BME280;9776;50.798;6.430;2024-01-27T08:27:19;102221.97;;;4.28;63.98
19286;BME280;9776;50.798;6.430;2024-01-27T08:29:46;102221.09;;;4.29;64.08
19286;BME280;9776;50.798;6.430;2024-01-27T08:32:13;102225.13;;;4.36;64.03
19286;BME280;9776;50.798;6.430;2024-01-27T08:34:39;102215.34;;;4.41;63.95
19286;BME280;9776;50.798;6.430;2024-01-27T08:37:14;102208.94;;;4.48;63.90
19286;BME280;9776;50.798;6.430;2024-01-27T08:39:42;102206.84;;;4.56;63.97
19286;BME280;9776;50.798;6.430;2024-01-27T08:42:10;102207.38;;;4.65;63.96
19286;BME280;9776;50.798;6.430;2024-01-27T08:44:37;102218.41;;;4.71;63.85
19286;BME280;9776;50.798;6.430;2024-01-27T08:47:04;102214.53;;;4.80;63.80
19286;BME280;9776;50.798;6.430;2024-01-27T08:49:31;102205.56;;;4.85;63.87
19286;BME280;9776;50.798;6.430;2024-01-27T08:51:58;102211.53;;;4.89;63.64
19286;BME280;9776;50.798;6.430;2024-01-27T08:54:24;102206.94;;;4.94;63.50
19286;BME280;9776;50.798;6.430;2024-01-27T08:56:51;102212.97;;;4.96;63.57
19286;BME280;9776;50.798;6.430;2024-01-27T08:59:19;102210.13;;;5.00;63.68
19286;BME280;9776;50.798;6.430;2024-01-27T09:01:46;102196.16;;;5.01;63.69
19286;BME280;9776;50.798;6.430;2024-01-27T09:04:12;102207.34;;;5.05;63.52
19286;BME280;9776;50.798;6.430;2024-01-27T09:06:39;102198.53;;;5.06;63.57
19286;BME280;9776;50.798;6.430;2024-01-27T09:09:06;102194.88;;;5.10;63.70
19286;BME280;9776;50.798;6.430;2024-01-27T09:11:33;102200.91;;;5.12;63.72
19286;BME280;9776;50.798;6.430;2024-01-27T09:14:00;102194.66;;;5.14;63.91
19286;BME280;9776;50.798;6.430;2024-01-27T09:16:28;102184.00;;;5.19;63.78
19286;BME280;9776;50.798;6.430;2024-01-27T09:18:54;102183.88;;;5.22;63.70
19286;BME280;9776;50.798;6.430;2024-01-27T09:21:21;102186.19;;;5.28;63.69
19286;BME280;9776;50.798;6.430;2024-01-27T09:23:53;102183.41;;;5.31;63.76
19286;BME280;9776;50.798;6.430;2024-01-27T09:26:20;102197.09;;;5.38;63.67
19286;BME280;9776;50.798;6.430;2024-01-27T09:28:48;102195.19;;;5.41;63.73
19286;BME280;9776;50.798;6.430;2024-01-27T09:31:19;102195.03;;;5.44;63.54
19286;BME280;9776;50.798;6.430;2024-01-27T09:33:49;102207.84;;;5.50;63.68
19286;BME280;9776;50.798;6.430;2024-01-27T09:36:16;102202.47;;;5.53;63.52
19286;BME280;9776;50.798;6.430;2024-01-27T09:38:43;102206.50;;;5.60;63.62
19286;BME280;9776;50.798;6.430;2024-01-27T09:41:10;102207.19;;;5.64;63.50
19286;BME280;9776;50.798;6.430;2024-01-27T09:43:42;102209.59;;;5.68;63.32
19286;BME280;9776;50.798;6.430;2024-01-27T09:46:08;102210.25;;;5.73;63.44
19286;BME280;9776;50.798;6.430;2024-01-27T09:48:35;102210.88;;;5.79;63.57
19286;BME280;9776;50.798;6.430;2024-01-27T09:51:04;102214.13;;;5.84;63.27
19286;BME280;9776;50.798;6.430;2024-01-27T09:53:31;102214.00;;;5.87;63.21
19286;BME280;9776;50.798;6.430;2024-01-27T09:55:58;102215.41;;;5.94;63.26
19286;BME280;9776;50.798;6.430;2024-01-27T09:58:28;102217.66;;;6.01;63.08
19286;BME280;9776;50.798;6.430;2024-01-27T10:00:56;102205.97;;;6.08;62.76
19286;BME280;9776;50.798;6.430;2024-01-27T10:03:24;102208.34;;;6.13;62.76
19286;BME280;9776;50.798;6.430;2024-01-27T10:05:52;102214.06;;;6.21;62.47
19286;BME280;9776;50.798;6.430;2024-01-27T10:08:22;102220.78;;;6.26;62.34
19286;BME280;9776;50.798;6.430;2024-01-27T10:10:53;102216.03;;;6.35;62.25
19286;BME280;9776;50.798;6.430;2024-01-27T10:13:20;102224.41;;;6.41;62.15
19286;BME280;9776;50.798;6.430;2024-01-27T10:15:59;102216.16;;;6.49;62.08
19286;BME280;9776;50.798;6.430;2024-01-27T10:18:26;102213.91;;;6.58;61.77
19286;BME280;9776;50.798;6.430;2024-01-27T10:20:52;102197.69;;;6.67;61.67
19286;BME280;9776;50.798;6.430;2024-01-27T10:23:20;102203.25;;;6.78;61.68
19286;BME280;9776;50.798;6.430;2024-01-27T10:25:47;102208.03;;;6.88;61.23
19286;BME280;9776;50.798;6.430;2024-01-27T10:28:14;102196.97;;;6.98;60.97
19286;BME280;9776;50.798;6.430;2024-01-27T10:30:41;102195.88;;;7.02;61.04
19286;BME280;9776;50.798;6.430;2024-01-27T10:33:09;102203.25;;;7.11;60.78
19286;BME280;9776;50.798;6.430;2024-01-27T10:35:36;102207.00;;;7.23;60.43
19286;BME280;9776;50.798;6.430;2024-01-27T10:38:03;102200.16;;;7.36;60.11
19286;BME280;9776;50.798;6.430;2024-01-27T10:40:31;102208.16;;;7.50;59.66
19286;BME280;9776;50.798;6.430;2024-01-27T10:43:01;102201.38;;;7.62;59.49
19286;BME280;9776;50.798;6.430;2024-01-27T10:45:33;102200.78;;;7.72;59.16
19286;BME280;9776;50.798;6.430;2024-01-27T10:48:02;102193.06;;;7.85;58.93
19286;BME280;9776;50.798;6.430;2024-01-27T10:50:29;102199.19;;;7.99;58.50
19286;BME280;9776;50.798;6.430;2024-01-27T10:52:57;102195.63;;;8.16;58.00
19286;BME280;9776;50.798;6.430;2024-01-27T10:55:25;102177.34;;;8.29;57.65
19286;BME280;9776;50.798;6.430;2024-01-27T10:57:54;102175.69;;;8.28;57.73
19286;BME280;9776;50.798;6.430;2024-01-27T11:00:23;102182.03;;;8.24;57.78
19286;BME280;9776;50.798;6.430;2024-01-27T11:02:52;102184.06;;;8.19;57.85
19286;BME280;9776;50.798;6.430;2024-01-27T11:05:21;102178.34;;;8.26;57.59
19286;BME280;9776;50.798;6.430;2024-01-27T11:07:50;102176.34;;;9.18;56.15
19286;BME280;9776;50.798;6.430;2024-01-27T11:10:18;102175.19;;;11.18;52.29
19286;BME280;9776;50.798;6.430;2024-01-27T11:12:45;102179.56;;;13.06;48.32
19286;BME280;9776;50.798;6.430;2024-01-27T11:15:15;102184.97;;;14.76;45.03
19286;BME280;9776;50.798;6.430;2024-01-27T11:17:42;102189.03;;;16.09;42.30
19286;BME280;9776;50.798;6.430;2024-01-27T11:20:11;102189.91;;;16.94;40.46
19286;BME280;9776;50.798;6.430;2024-01-27T11:22:38;102200.31;;;17.52;39.33
19286;BME280;9776;50.798;6.430;2024-01-27T11:25:14;102201.31;;;17.78;38.44
19286;BME280;9776;50.798;6.430;2024-01-27T11:27:43;102204.50;;;17.64;38.69
19286;BME280;9776;50.798;6.430;2024-01-27T11:30:25;102210.38;;;17.03;39.12
19286;BME280;9776;50.798;6.430;2024-01-27T11:32:54;102204.44;;;16.63;39.88
19286;BME280;9776;50.798;6.430;2024-01-27T11:35:21;102210.88;;;16.51;39.80
19286;BME280;9776;50.798;6.430;2024-01-27T11:37:48;102213.13;;;16.65;38.93
19286;BME280;9776;50.798;6.430;2024-01-27T11:40:15;102208.91;;;16.82;38.42
19286;BME280;9776;50.798;6.430;2024-01-27T11:42:42;102205.41;;;16.72;38.00
19286;BME280;9776;50.798;6.430;2024-01-27T11:45:08;102203.03;;;16.40;38.30
19286;BME280;9776;50.798;6.430;2024-01-27T11:47:36;102194.06;;;16.51;38.09
19286;BME280;9776;50.798;6.430;2024-01-27T11:50:03;102202.56;;;16.83;37.56
19286;BME280;9776;50.798;6.430;2024-01-27T11:52:30;102200.75;;;17.20;36.66
19286;BME280;9776;50.798;6.430;2024-01-27T11:54:58;102199.63;;;17.50;36.12
19286;BME280;9776;50.798;6.430;2024-01-27T11:57:25;102203.44;;;17.47;35.79
19286;BME280;9776;50.798;6.430;2024-01-27T11:59:53;102201.53;;;17.40;35.93
19286;BME280;9776;50.798;6.430;2024-01-27T12:02:20;102208.41;;;17.70;35.21
19286;BME280;9776;50.798;6.430;2024-01-27T12:04:48;102205.72;;;17.97;34.24
19286;BME280;9776;50.798;6.430;2024-01-27T12:07:16;102198.72;;;18.39;33.70
19286;BME280;9776;50.798;6.430;2024-01-27T12:09:44;102201.00;;;18.95;32.81
19286;BME280;9776;50.798;6.430;2024-01-27T12:12:12;102186.09;;;19.60;31.89
19286;BME280;9776;50.798;6.430;2024-01-27T12:14:40;102186.63;;;19.80;31.30
19286;BME280;9776;50.798;6.430;2024-01-27T12:17:08;102187.34;;;20.06;31.13
19286;BME280;9776;50.798;6.430;2024-01-27T12:19:36;102190.72;;;20.16;30.75
19286;BME280;9776;50.798;6.430;2024-01-27T12:22:21;102180.47;;;19.96;30.86
19286;BME280;9776;50.798;6.430;2024-01-27T12:24:48;102176.56;;;19.74;31.15
19286;BME280;9776;50.798;6.430;2024-01-27T12:27:16;102169.06;;;19.36;31.59
19286;BME280;9776;50.798;6.430;2024-01-27T12:29:43;102169.31;;;19.42;31.49
19286;BME280;9776;50.798;6.430;2024-01-27T12:32:10;102158.97;;;19.71;30.99
19286;BME280;9776;50.798;6.430;2024-01-27T12:34:39;102171.25;;;19.90;30.57
19286;BME280;9776;50.798;6.430;2024-01-27T12:37:11;102164.38;;;19.38;30.80
19286;BME280;9776;50.798;6.430;2024-01-27T12:39:37;102165.97;;;18.81;31.54
19286;BME280;9776;50.798;6.430;2024-01-27T12:42:05;102161.81;;;18.86;31.41
19286;BME280;9776;50.798;6.430;2024-01-27T12:44:31;102162.53;;;18.96;31.05
19286;BME280;9776;50.798;6.430;2024-01-27T12:46:58;102154.72;;;19.11;30.53
19286;BME280;9776;50.798;6.430;2024-01-27T12:49:26;102161.09;;;19.44;30.12
19286;BME280;9776;50.798;6.430;2024-01-27T12:51:52;102154.50;;;19.96;29.53
19286;BME280;9776;50.798;6.430;2024-01-27T12:54:21;102147.50;;;20.52;28.56
19286;BME280;9776;50.798;6.430;2024-01-27T12:56:48;102149.09;;;21.32;27.86
19286;BME280;9776;50.798;6.430;2024-01-27T12:59:14;102150.69;;;22.02;27.20
19286;BME280;9776;50.798;6.430;2024-01-27T13:01:42;102148.75;;;22.48;26.67
19286;BME280;9776;50.798;6.430;2024-01-27T13:04:09;102154.63;;;22.15;26.87
19286;BME280;9776;50.798;6.430;2024-01-27T13:06:36;102145.16;;;21.42;27.49
19286;BME280;9776;50.798;6.430;2024-01-27T13:09:03;102131.03;;;21.18;27.77
19286;BME280;9776;50.798;6.430;2024-01-27T13:11:32;102140.75;;;21.27;27.67